sensor_id;sensor_type;location;lat;lon;timestamp;pressure;altitude;pressure_sealevel;temperature;humidity
16255;BME280;8235;52.198;9.904;2024-01-16T00:00:16;99569.41;;;0.62;99.05
16255;BME280;8235;52.198;9.904;2024-01-16T00:02:42;99565.94;;;0.61;98.75
16255;BME280;8235;52.198;9.904;2024-01-16T00:05:10;99586.09;;;0.59;99.02
16255;BME280;8235;52.198;9.904;2024-01-16T00:07:39;99575.56;;;0.61;99.56
16255;BME280;8235;52.198;9.904;2024-01-16T00:10:07;99579.78;;;0.65;98.87
16255;BME280;8235;52.198;9.904;2024-01-16T00:12:34;99583.19;;;0.67;99.02
16255;BME280;8235;52.198;9.904;2024-01-16T00:15:00;99592.75;;;0.68;98.94
16255;BME280;8235;52.198;9.904;2024-01-16T00:17:28;99598.91;;;0.67;99.03
16255;BME280;8235;52.198;9.904;2024-01-16T00:19:54;99598.00;;;0.68;98.63
16255;BME280;8235;52.198;9.904;2024-01-16T00:22:21;99599.81;;;0.66;98.46
16255;BME280;8235;52.198;9.904;2024-01-16T00:24:47;99606.78;;;0.67;97.77
16255;BME280;8235;52.198;9.904;2024-01-16T00:27:14;99609.44;;;0.65;97.95
16255;BME280;8235;52.198;9.904;2024-01-16T00:29:40;99611.03;;;0.69;97.96
16255;BME280;8235;52.198;9.904;2024-01-16T00:32:07;99611.97;;;0.68;97.18
16255;BME280;8235;52.198;9.904;2024-01-16T00:34:35;99614.69;;;0.65;97.12
16255;BME280;8235;52.198;9.904;2024-01-16T00:37:01;99623.53;;;0.63;96.65
16255;BME280;8235;52.198;9.904;2024-01-16T00:39:28;99623.53;;;0.63;96.39
16255;BME280;8235;52.198;9.904;2024-01-16T00:41:54;99628.72;;;0.64;96.52
16255;BME280;8235;52.198;9.904;2024-01-16T00:44:21;99629.50;;;0.66;96.17
16255;BME280;8235;52.198;9.904;2024-01-16T00:46:47;99630.34;;;0.67;96.56
16255;BME280;8235;52.198;9.904;2024-01-16T00:49:13;99637.31;;;0.68;96.82
16255;BME280;8235;52.198;9.904;2024-01-16T00:51:41;99637.41;;;0.65;97.19
16255;BME280;8235;52.198;9.904;2024-01-16T00:54:08;99646.88;;;0.69;97.00
16255;BME280;8235;52.198;9.904;2024-01-16T00:56:35;99656.50;;;0.68;96.58
16255;BME280;8235;52.198;9.904;2024-01-16T00:59:01;99652.19;;;0.67;96.50
16255;BME280;8235;52.198;9.904;2024-01-16T01:01:28;99658.28;;;0.68;96.00
16255;BME280;8235;52.198;9.904;2024-01-16T01:03:54;99655.66;;;0.68;95.44
16255;BME280;8235;52.198;9.904;2024-01-16T01:06:21;99656.56;;;0.67;94.85
16255;BME280;8235;52.198;9.904;2024-01-16T01:08:49;99648.75;;;0.65;94.79
16255;BME280;8235;52.198;9.904;2024-01-16T01:11:16;99662.78;;;0.64;93.56
16255;BME280;8235;52.198;9.904;2024-01-16T01:13:42;99656.69;;;0.64;93.43
16255;BME280;8235;52.198;9.904;2024-01-16T01:16:09;99661.97;;;0.62;93.11
16255;BME280;8235;52.198;9.904;2024-01-16T01:18:35;99672.56;;;0.59;92.92
16255;BME280;8235;52.198;9.904;2024-01-16T01:21:02;99664.81;;;0.56;93.01
16255;BME280;8235;52.198;9.904;2024-01-16T01:23:29;99676.16;;;0.57;93.10
16255;BME280;8235;52.198;9.904;2024-01-16T01:25:57;99677.88;;;0.58;92.96
16255;BME280;8235;52.198;9.904;2024-01-16T01:28:23;99683.31;;;0.53;93.26
16255;BME280;8235;52.198;9.904;2024-01-16T01:30:50;99683.22;;;0.55;93.15
16255;BME280;8235;52.198;9.904;2024-01-16T01:33:16;99680.59;;;0.55;93.29
16255;BME280;8235;52.198;9.904;2024-01-16T01:35:43;99688.53;;;0.53;93.80
16255;BME280;8235;52.198;9.904;2024-01-16T01:38:10;99691.00;;;0.56;94.14
16255;BME280;8235;52.198;9.904;2024-01-16T01:40:36;99684.91;;;0.56;94.19
16255;BME280;8235;52.198;9.904;2024-01-16T01:43:18;99687.47;;;0.57;94.45
16255;BME280;8235;52.198;9.904;2024-01-16T01:45:47;99691.72;;;0.61;94.69
16255;BME280;8235;52.198;9.904;2024-01-16T01:48:14;99689.09;;;0.61;94.24
16255;BME280;8235;52.198;9.904;2024-01-16T01:50:40;99686.41;;;0.63;94.32
16255;BME280;8235;52.198;9.904;2024-01-16T01:53:07;99702.13;;;0.63;93.99
16255;BME280;8235;52.198;9.904;2024-01-16T01:55:34;99707.38;;;0.63;94.62
16255;BME280;8235;52.198;9.904;2024-01-16T01:58:01;99706.50;;;0.62;94.53
16255;BME280;8235;52.198;9.904;2024-01-16T02:00:31;99709.94;;;0.64;94.57
16255;BME280;8235;52.198;9.904;2024-01-16T02:02:59;99711.69;;;0.64;95.04
16255;BME280;8235;52.198;9.904;2024-01-16T02:05:26;99712.44;;;0.67;94.76
16255;BME280;8235;52.198;9.904;2024-01-16T02:07:53;99717.00;;;0.62;95.04
16255;BME280;8235;52.198;9.904;2024-01-16T02:10:20;99717.78;;;0.64;94.75
16255;BME280;8235;52.198;9.904;2024-01-16T02:12:46;99724.97;;;0.59;94.13
16255;BME280;8235;52.198;9.904;2024-01-16T02:15:13;99725.94;;;0.57;93.57
16255;BME280;8235;52.198;9.904;2024-01-16T02:17:41;99731.28;;;0.54;93.56
16255;BME280;8235;52.198;9.904;2024-01-16T02:20:08;99727.69;;;0.56;93.56
16255;BME280;8235;52.198;9.904;2024-01-16T02:22:35;99733.78;;;0.57;93.85
16255;BME280;8235;52.198;9.904;2024-01-16T02:25:05;99732.94;;;0.56;93.41
16255;BME280;8235;52.198;9.904;2024-01-16T02:27:32;99734.66;;;0.57;93.19
16255;BME280;8235;52.198;9.904;2024-01-16T02:29:58;99732.94;;;0.56;93.38
16255;BME280;8235;52.198;9.904;2024-01-16T02:32:25;99732.03;;;0.57;93.12
16255;BME280;8235;52.198;9.904;2024-01-16T02:34:51;99736.41;;;0.57;93.10
16255;BME280;8235;52.198;9.904;2024-01-16T02:37:18;99736.59;;;0.52;92.35
16255;BME280;8235;52.198;9.904;2024-01-16T02:39:44;99752.44;;;0.49;92.51
16255;BME280;8235;52.198;9.904;2024-01-16T02:42:12;99754.25;;;0.47;92.42
16255;BME280;8235;52.198;9.904;2024-01-16T02:44:39;99754.41;;;0.43;92.64
16255;BME280;8235;52.198;9.904;2024-01-16T02:47:06;99750.06;;;0.42;92.71
16255;BME280;8235;52.198;9.904;2024-01-16T02:49:33;99752.84;;;0.37;92.14
16255;BME280;8235;52.198;9.904;2024-01-16T02:52:02;99770.13;;;0.43;92.15
16255;BME280;8235;52.198;9.904;2024-01-16T02:54:28;99765.00;;;0.40;91.58
16255;BME280;8235;52.198;9.904;2024-01-16T02:56:55;99769.31;;;0.41;91.27
16255;BME280;8235;52.198;9.904;2024-01-16T02:59:23;99766.75;;;0.39;91.34
16255;BME280;8235;52.198;9.904;2024-01-16T03:01:49;99783.38;;;0.38;90.81
16255;BME280;8235;52.198;9.904;2024-01-16T03:04:15;99783.56;;;0.33;90.85
16255;BME280;8235;52.198;9.904;2024-01-16T03:06:42;99791.38;;;0.35;90.91
16255;BME280;8235;52.198;9.904;2024-01-16T03:09:08;99788.00;;;0.31;91.09
16255;BME280;8235;52.198;9.904;2024-01-16T03:11:37;99781.75;;;0.36;91.06
16255;BME280;8235;52.198;9.904;2024-01-16T03:14:05;99783.50;;;0.35;90.79
16255;BME280;8235;52.198;9.904;2024-01-16T03:16:33;99781.75;;;0.36;90.55
16255;BME280;8235;52.198;9.904;2024-01-16T03:18:59;99789.72;;;0.32;90.26
16255;BME280;8235;52.198;9.904;2024-01-16T03:21:25;99791.47;;;0.32;90.32
16255;BME280;8235;52.198;9.904;2024-01-16T03:23:52;99790.63;;;0.31;90.37
16255;BME280;8235;52.198;9.904;2024-01-16T03:26:20;99788.03;;;0.30;90.46
16255;BME280;8235;52.198;9.904;2024-01-16T03:28:46;99800.19;;;0.32;90.21
16255;BME280;8235;52.198;9.904;2024-01-16T03:31:12;99796.72;;;0.32;90.11
16255;BME280;8235;52.198;9.904;2024-01-16T03:33:41;99794.91;;;0.34;90.58
16255;BME280;8235;52.198;9.904;2024-01-16T03:36:08;99799.38;;;0.30;89.74
16255;BME280;8235;52.198;9.904;2024-01-16T03:38:35;99797.72;;;0.28;90.15
16255;BME280;8235;52.198;9.904;2024-01-16T03:41:03;99810.88;;;0.26;90.09
16255;BME280;8235;52.198;9.904;2024-01-16T03:43:32;99809.19;;;0.24;90.18
16255;BME280;8235;52.198;9.904;2024-01-16T03:45:58;99812.72;;;0.23;90.35
16255;BME280;8235;52.198;9.904;2024-01-16T03:48:25;99816.16;;;0.25;90.67
16255;BME280;8235;52.198;9.904;2024-01-16T03:50:52;99813.53;;;0.25;90.64
16255;BME280;8235;52.198;9.904;2024-01-16T03:53:20;99816.34;;;0.19;90.73
16255;BME280;8235;52.198;9.904;2024-01-16T03:55:46;99813.81;;;0.17;90.55
16255;BME280;8235;52.198;9.904;2024-01-16T03:58:13;99820.00;;;0.15;91.64
16255;BME280;8235;52.198;9.904;2024-01-16T04:00:40;99826.09;;;0.15;91.72
16255;BME280;8235;52.198;9.904;2024-01-16T04:03:06;99828.78;;;0.14;91.53
16255;BME280;8235;52.198;9.904;2024-01-16T04:05:33;99834.91;;;0.13;92.24
16255;BME280;8235;52.198;9.904;2024-01-16T04:08:01;99835.88;;;0.10;91.89
16255;BME280;8235;52.198;9.904;2024-01-16T04:10:27;99838.47;;;0.10;92.53
16255;BME280;8235;52.198;9.904;2024-01-16T04:12:54;99829.88;;;0.07;92.65
16255;BME280;8235;52.198;9.904;2024-01-16T04:15:20;99841.16;;;0.09;93.03
16255;BME280;8235;52.198;9.904;2024-01-16T04:17:47;99833.28;;;0.09;92.93
16255;BME280;8235;52.198;9.904;2024-01-16T04:20:13;99834.19;;;0.08;92.85
16255;BME280;8235;52.198;9.904;2024-01-16T04:22:40;99834.34;;;0.03;92.78
16255;BME280;8235;52.198;9.904;2024-01-16T04:25:08;99830.88;;;0.03;92.93
16255;BME280;8235;52.198;9.904;2024-01-16T04:27:35;99831.06;;;-0.02;93.22
16255;BME280;8235;52.198;9.904;2024-01-16T04:30:01;99843.28;;;-0.03;93.27
16255;BME280;8235;52.198;9.904;2024-01-16T04:32:28;99839.84;;;-0.05;93.14
16255;BME280;8235;52.198;9.904;2024-01-16T04:34:55;99846.91;;;-0.07;93.29
16255;BME280;8235;52.198;9.904;2024-01-16T04:37:21;99844.38;;;-0.10;93.52
16255;BME280;8235;52.198;9.904;2024-01-16T04:39:47;99840.81;;;-0.07;93.31
16255;BME280;8235;52.198;9.904;2024-01-16T04:42:15;99846.94;;;-0.08;93.02
16255;BME280;8235;52.198;9.904;2024-01-16T04:44:43;99835.66;;;-0.10;93.09
16255;BME280;8235;52.198;9.904;2024-01-16T04:47:09;99838.34;;;-0.12;93.37
16255;BME280;8235;52.198;9.904;2024-01-16T04:49:36;99839.31;;;-0.16;93.50
16255;BME280;8235;52.198;9.904;2024-01-16T04:52:03;99848.03;;;-0.15;93.54
16255;BME280;8235;52.198;9.904;2024-01-16T04:54:30;99842.81;;;-0.15;93.57
16255;BME280;8235;52.198;9.904;2024-01-16T04:56:57;99849.81;;;-0.16;93.57
16255;BME280;8235;52.198;9.904;2024-01-16T04:59:25;99845.56;;;-0.18;93.64
16255;BME280;8235;52.198;9.904;2024-01-16T05:01:52;99842.94;;;-0.18;93.60
16255;BME280;8235;52.198;9.904;2024-01-16T05:04:18;99853.50;;;-0.21;93.49
16255;BME280;8235;52.198;9.904;2024-01-16T05:06:45;99850.03;;;-0.22;93.49
16255;BME280;8235;52.198;9.904;2024-01-16T05:09:10;99853.53;;;-0.23;93.50
16255;BME280;8235;52.198;9.904;2024-01-16T05:11:37;99846.50;;;-0.21;93.31
16255;BME280;8235;52.198;9.904;2024-01-16T05:14:03;99850.03;;;-0.22;93.06
16255;BME280;8235;52.198;9.904;2024-01-16T05:16:31;99857.00;;;-0.22;93.60
16255;BME280;8235;52.198;9.904;2024-01-16T05:18:58;99858.63;;;-0.18;93.33
16255;BME280;8235;52.198;9.904;2024-01-16T05:21:24;99857.81;;;-0.20;93.36
16255;BME280;8235;52.198;9.904;2024-01-16T05:23:51;99852.59;;;-0.20;93.45
16255;BME280;8235;52.198;9.904;2024-01-16T05:26:17;99852.59;;;-0.20;93.63
16255;BME280;8235;52.198;9.904;2024-01-16T05:28:43;99865.63;;;-0.19;93.66
16255;BME280;8235;52.198;9.904;2024-01-16T05:31:10;99857.00;;;-0.22;93.70
16255;BME280;8235;52.198;9.904;2024-01-16T05:33:38;99865.72;;;-0.22;93.74
16255;BME280;8235;52.198;9.904;2024-01-16T05:36:05;99863.09;;;-0.22;93.81
16255;BME280;8235;52.198;9.904;2024-01-16T05:38:31;99864.00;;;-0.23;93.72
16255;BME280;8235;52.198;9.904;2024-01-16T05:40:58;99868.38;;;-0.23;93.88
16255;BME280;8235;52.198;9.904;2024-01-16T05:43:25;99864.09;;;-0.26;93.89
16255;BME280;8235;52.198;9.904;2024-01-16T05:45:54;99869.25;;;-0.23;94.24
16255;BME280;8235;52.198;9.904;2024-01-16T05:48:20;99863.09;;;-0.22;94.29
16255;BME280;8235;52.198;9.904;2024-01-16T05:50:48;99865.66;;;-0.20;94.21
16255;BME280;8235;52.198;9.904;2024-01-16T05:53:14;99865.75;;;-0.23;94.69
16255;BME280;8235;52.198;9.904;2024-01-16T05:55:41;99866.66;;;-0.24;94.75
16255;BME280;8235;52.198;9.904;2024-01-16T05:58:07;99869.25;;;-0.23;94.66
16255;BME280;8235;52.198;9.904;2024-01-16T06:00:34;99868.34;;;-0.22;94.46
16255;BME280;8235;52.198;9.904;2024-01-16T06:03:00;99868.38;;;-0.23;94.74
16255;BME280;8235;52.198;9.904;2024-01-16T06:05:28;99860.56;;;-0.25;94.68
16255;BME280;8235;52.198;9.904;2024-01-16T06:07:55;99864.91;;;-0.24;94.89
16255;BME280;8235;52.198;9.904;2024-01-16T06:10:22;99870.22;;;-0.27;94.90
16255;BME280;8235;52.198;9.904;2024-01-16T06:12:48;99863.34;;;-0.29;94.96
16255;BME280;8235;52.198;9.904;2024-01-16T06:15:15;99864.19;;;-0.29;95.03
16255;BME280;8235;52.198;9.904;2024-01-16T06:17:41;99859.91;;;-0.31;94.82
16255;BME280;8235;52.198;9.904;2024-01-16T06:20:09;99864.19;;;-0.29;94.69
16255;BME280;8235;52.198;9.904;2024-01-16T06:22:36;99858.25;;;-0.34;94.71
16255;BME280;8235;52.198;9.904;2024-01-16T06:25:04;99873.06;;;-0.35;94.70
16255;BME280;8235;52.198;9.904;2024-01-16T06:27:31;99862.69;;;-0.36;94.63
16255;BME280;8235;52.198;9.904;2024-01-16T06:29:58;99865.41;;;-0.39;94.72
16255;BME280;8235;52.198;9.904;2024-01-16T06:32:24;99860.16;;;-0.39;94.91
16255;BME280;8235;52.198;9.904;2024-01-16T06:34:51;99862.81;;;-0.41;95.01
16255;BME280;8235;52.198;9.904;2024-01-16T06:37:17;99861.88;;;-0.38;95.04
16255;BME280;8235;52.198;9.904;2024-01-16T06:39:44;99857.59;;;-0.41;95.19
16255;BME280;8235;52.198;9.904;2024-01-16T06:42:11;99862.81;;;-0.41;95.09
16255;BME280;8235;52.198;9.904;2024-01-16T06:44:38;99872.44;;;-0.41;95.14
16255;BME280;8235;52.198;9.904;2024-01-16T06:47:05;99869.81;;;-0.41;95.35
16255;BME280;8235;52.198;9.904;2024-01-16T06:49:31;99877.66;;;-0.41;95.63
16255;BME280;8235;52.198;9.904;2024-01-16T06:51:58;99878.44;;;-0.38;95.62
16255;BME280;8235;52.198;9.904;2024-01-16T06:54:24;99884.53;;;-0.37;95.46
16255;BME280;8235;52.198;9.904;2024-01-16T06:56:51;99879.22;;;-0.36;95.60
16255;BME280;8235;52.198;9.904;2024-01-16T06:59:19;99880.16;;;-0.37;95.82
16255;BME280;8235;52.198;9.904;2024-01-16T07:01:47;99890.41;;;-0.30;96.12
16255;BME280;8235;52.198;9.904;2024-01-16T07:04:13;99882.41;;;-0.26;97.39
16255;BME280;8235;52.198;9.904;2024-01-16T07:06:40;99885.97;;;-0.28;97.50
16255;BME280;8235;52.198;9.904;2024-01-16T07:09:06;99894.69;;;-0.28;98.09
16255;BME280;8235;52.198;9.904;2024-01-16T07:11:36;99887.75;;;-0.29;98.27
16255;BME280;8235;52.198;9.904;2024-01-16T07:14:02;99898.97;;;-0.25;98.06
16255;BME280;8235;52.198;9.904;2024-01-16T07:16:30;99893.66;;;-0.22;97.87
16255;BME280;8235;52.198;9.904;2024-01-16T07:18:56;99892.56;;;-0.17;97.20
16255;BME280;8235;52.198;9.904;2024-01-16T07:21:22;99905.66;;;-0.17;96.77
16255;BME280;8235;52.198;9.904;2024-01-16T07:23:49;99898.78;;;-0.19;96.91
16255;BME280;8235;52.198;9.904;2024-01-16T07:26:15;99896.22;;;-0.21;96.74
16255;BME280;8235;52.198;9.904;2024-01-16T07:28:42;99895.44;;;-0.24;96.77
16255;BME280;8235;52.198;9.904;2024-01-16T07:31:09;99893.78;;;-0.27;96.79
16255;BME280;8235;52.198;9.904;2024-01-16T07:33:38;99902.41;;;-0.23;96.82
16255;BME280;8235;52.198;9.904;2024-01-16T07:36:06;99896.31;;;-0.24;96.80
16255;BME280;8235;52.198;9.904;2024-01-16T07:38:32;99902.44;;;-0.25;96.32
16255;BME280;8235;52.198;9.904;2024-01-16T07:40:59;99894.50;;;-0.22;96.20
16255;BME280;8235;52.198;9.904;2024-01-16T07:43:26;99903.25;;;-0.23;96.22
16255;BME280;8235;52.198;9.904;2024-01-16T07:45:52;99895.41;;;-0.23;96.32
16255;BME280;8235;52.198;9.904;2024-01-16T07:48:18;99901.44;;;-0.21;96.63
16255;BME280;8235;52.198;9.904;2024-01-16T07:50:46;99889.28;;;-0.22;97.03
16255;BME280;8235;52.198;9.904;2024-01-16T07:53:13;99899.75;;;-0.22;96.87
16255;BME280;8235;52.198;9.904;2024-01-16T07:55:40;99902.13;;;-0.16;96.91
16255;BME280;8235;52.198;9.904;2024-01-16T07:58:06;99906.38;;;-0.12;96.60
16255;BME280;8235;52.198;9.904;2024-01-16T08:00:33;99912.34;;;-0.07;96.20
16255;BME280;8235;52.198;9.904;2024-01-16T08:02:59;99914.00;;;-0.04;96.15
16255;BME280;8235;52.198;9.904;2024-01-16T08:05:26;99917.53;;;-0.05;96.14
16255;BME280;8235;52.198;9.904;2024-01-16T08:07:54;99922.00;;;-0.09;96.35
16255;BME280;8235;52.198;9.904;2024-01-16T08:10:20;99918.53;;;-0.09;96.69
16255;BME280;8235;52.198;9.904;2024-01-16T08:12:47;99923.66;;;-0.06;96.53
16255;BME280;8235;52.198;9.904;2024-01-16T08:15:13;99918.44;;;-0.06;96.37
16255;BME280;8235;52.198;9.904;2024-01-16T08:17:40;99917.53;;;-0.05;96.47
16255;BME280;8235;52.198;9.904;2024-01-16T08:20:08;99914.91;;;-0.05;96.46
16255;BME280;8235;52.198;9.904;2024-01-16T08:22:45;99919.22;;;-0.04;96.34
16255;BME280;8235;52.198;9.904;2024-01-16T08:25:12;99920.06;;;-0.02;96.06
16255;BME280;8235;52.198;9.904;2024-01-16T08:27:39;99921.59;;;0.04;95.99
16255;BME280;8235;52.198;9.904;2024-01-16T08:30:06;99912.84;;;0.05;95.61
16255;BME280;8235;52.198;9.904;2024-01-16T08:32:33;99911.94;;;0.06;95.40
16255;BME280;8235;52.198;9.904;2024-01-16T08:34:59;99917.16;;;0.06;95.45
16255;BME280;8235;52.198;9.904;2024-01-16T08:37:26;99912.75;;;0.08;95.51
16255;BME280;8235;52.198;9.904;2024-01-16T08:39:52;99912.59;;;0.12;95.46
16255;BME280;8235;52.198;9.904;2024-01-16T08:42:20;99921.22;;;0.16;95.14
16255;BME280;8235;52.198;9.904;2024-01-16T08:44:47;99918.59;;;0.16;95.23
16255;BME280;8235;52.198;9.904;2024-01-16T08:47:16;99915.13;;;0.15;95.01
16255;BME280;8235;52.198;9.904;2024-01-16T08:49:43;99911.59;;;0.16;95.04
16255;BME280;8235;52.198;9.904;2024-01-16T08:52:09;99912.28;;;0.21;94.70
16255;BME280;8235;52.198;9.904;2024-01-16T08:54:36;99916.56;;;0.24;94.36
16255;BME280;8235;52.198;9.904;2024-01-16T08:57:03;99921.03;;;0.20;94.02
16255;BME280;8235;52.198;9.904;2024-01-16T08:59:31;99909.63;;;0.23;93.81
16255;BME280;8235;52.198;9.904;2024-01-16T09:01:57;99920.13;;;0.21;94.45
16255;BME280;8235;52.198;9.904;2024-01-16T09:04:24;99919.19;;;0.24;94.27
16255;BME280;8235;52.198;9.904;2024-01-16T09:06:50;99918.31;;;0.23;94.30
16255;BME280;8235;52.198;9.904;2024-01-16T09:09:17;99911.31;;;0.24;94.30
16255;BME280;8235;52.198;9.904;2024-01-16T09:11:44;99915.47;;;0.31;93.40
16255;BME280;8235;52.198;9.904;2024-01-16T09:14:10;99910.91;;;0.36;92.97
16255;BME280;8235;52.198;9.904;2024-01-16T09:16:38;99914.34;;;0.38;93.00
16255;BME280;8235;52.198;9.904;2024-01-16T09:19:05;99920.47;;;0.37;92.38
16255;BME280;8235;52.198;9.904;2024-01-16T09:21:32;99922.09;;;0.41;92.72
16255;BME280;8235;52.198;9.904;2024-01-16T09:23:58;99911.53;;;0.44;92.57
16255;BME280;8235;52.198;9.904;2024-01-16T09:26:25;99912.44;;;0.43;92.20
16255;BME280;8235;52.198;9.904;2024-01-16T09:28:51;99915.81;;;0.47;91.94
16255;BME280;8235;52.198;9.904;2024-01-16T09:31:18;99914.03;;;0.47;92.35
16255;BME280;8235;52.198;9.904;2024-01-16T09:33:46;99920.19;;;0.46;92.34
16255;BME280;8235;52.198;9.904;2024-01-16T09:36:12;99911.31;;;0.50;91.85
16255;BME280;8235;52.198;9.904;2024-01-16T09:38:38;99924.47;;;0.49;91.65
16255;BME280;8235;52.198;9.904;2024-01-16T09:41:05;99927.03;;;0.50;91.87
16255;BME280;8235;52.198;9.904;2024-01-16T09:43:33;99933.88;;;0.54;91.62
16255;BME280;8235;52.198;9.904;2024-01-16T09:46:00;99924.25;;;0.55;92.35
16255;BME280;8235;52.198;9.904;2024-01-16T09:48:28;99917.09;;;0.60;92.12
16255;BME280;8235;52.198;9.904;2024-01-16T09:50:56;99923.91;;;0.65;92.28
16255;BME280;8235;52.198;9.904;2024-01-16T09:53:22;99922.88;;;0.69;92.14
16255;BME280;8235;52.198;9.904;2024-01-16T09:55:50;99927.00;;;0.77;91.59
16255;BME280;8235;52.198;9.904;2024-01-16T09:58:19;99927.59;;;0.85;91.43
16255;BME280;8235;52.198;9.904;2024-01-16T10:00:46;99916.94;;;0.89;91.56
16255;BME280;8235;52.198;9.904;2024-01-16T10:03:14;99927.16;;;0.97;91.05
16255;BME280;8235;52.198;9.904;2024-01-16T10:05:41;99928.75;;;1.01;90.27
16255;BME280;8235;52.198;9.904;2024-01-16T10:08:09;99923.41;;;1.04;90.03
16255;BME280;8235;52.198;9.904;2024-01-16T10:10:36;99925.13;;;1.05;90.87
16255;BME280;8235;52.198;9.904;2024-01-16T10:13:03;99927.59;;;1.08;90.23
16255;BME280;8235;52.198;9.904;2024-01-16T10:15:30;99922.94;;;1.16;90.36
16255;BME280;8235;52.198;9.904;2024-01-16T10:17:57;99915.94;;;1.17;90.13
16255;BME280;8235;52.198;9.904;2024-01-16T10:20:34;99923.75;;;1.18;90.41
16255;BME280;8235;52.198;9.904;2024-01-16T10:23:01;99919.22;;;1.23;90.46
16255;BME280;8235;52.198;9.904;2024-01-16T10:25:30;99931.41;;;1.24;89.97
16255;BME280;8235;52.198;9.904;2024-01-16T10:28:04;99916.28;;;1.31;89.96
16255;BME280;8235;52.198;9.904;2024-01-16T10:30:33;99920.44;;;1.36;89.13
16255;BME280;8235;52.198;9.904;2024-01-16T10:33:12;99927.41;;;1.37;89.11
16255;BME280;8235;52.198;9.904;2024-01-16T10:35:39;99922.16;;;1.37;89.50
16255;BME280;8235;52.198;9.904;2024-01-16T10:38:06;99935.13;;;1.42;88.80
16255;BME280;8235;52.198;9.904;2024-01-16T10:40:33;99926.25;;;1.45;88.64
16255;BME280;8235;52.198;9.904;2024-01-16T10:43:01;99937.75;;;1.42;88.54
16255;BME280;8235;52.198;9.904;2024-01-16T10:45:28;99928.03;;;1.44;87.98
16255;BME280;8235;52.198;9.904;2024-01-16T10:48:00;99929.72;;;1.45;87.61
16255;BME280;8235;52.198;9.904;2024-01-16T10:50:27;99940.38;;;1.42;88.74
16255;BME280;8235;52.198;9.904;2024-01-16T10:52:54;99931.63;;;1.42;87.96
16255;BME280;8235;52.198;9.904;2024-01-16T10:55:22;99939.38;;;1.45;87.67
16255;BME280;8235;52.198;9.904;2024-01-16T10:57:50;99943.59;;;1.49;87.36
16255;BME280;8235;52.198;9.904;2024-01-16T11:00:19;99936.63;;;1.48;87.01
16255;BME280;8235;52.198;9.904;2024-01-16T11:02:50;99943.59;;;1.49;86.87
16255;BME280;8235;52.198;9.904;2024-01-16T11:05:18;99947.25;;;1.45;86.82
16255;BME280;8235;52.198;9.904;2024-01-16T11:07:46;99939.50;;;1.42;87.03
16255;BME280;8235;52.198;9.904;2024-01-16T11:10:13;99944.72;;;1.43;86.66
16255;BME280;8235;52.198;9.904;2024-01-16T11:12:40;99937.59;;;1.45;87.26
16255;BME280;8235;52.198;9.904;2024-01-16T11:15:10;99937.50;;;1.48;86.29
16255;BME280;8235;52.198;9.904;2024-01-16T11:17:38;99939.25;;;1.48;86.62
16255;BME280;8235;52.198;9.904;2024-01-16T11:20:06;99937.44;;;1.50;85.88
16255;BME280;8235;52.198;9.904;2024-01-16T11:22:37;99938.34;;;1.49;86.58
16255;BME280;8235;52.198;9.904;2024-01-16T11:25:08;99933.84;;;1.52;85.92
16255;BME280;8235;52.198;9.904;2024-01-16T11:27:35;99935.63;;;1.52;84.61
16255;BME280;8235;52.198;9.904;2024-01-16T11:30:02;99940.06;;;1.50;84.84
16255;BME280;8235;52.198;9.904;2024-01-16T11:32:36;99940.22;;;1.45;85.08
16255;BME280;8235;52.198;9.904;2024-01-16T11:35:05;99939.50;;;1.42;84.82
16255;BME280;8235;52.198;9.904;2024-01-16T11:37:33;99930.16;;;1.34;84.59
16255;BME280;8235;52.198;9.904;2024-01-16T11:40:25;99932.81;;;1.33;85.94
16255;BME280;8235;52.198;9.904;2024-01-16T11:42:53;99935.56;;;1.30;85.72
16255;BME280;8235;52.198;9.904;2024-01-16T11:45:49;99922.44;;;1.30;85.64
16255;BME280;8235;52.198;9.904;2024-01-16T11:48:17;99926.03;;;1.27;86.27
16255;BME280;8235;52.198;9.904;2024-01-16T11:50:45;99932.06;;;1.29;86.82
16255;BME280;8235;52.198;9.904;2024-01-16T11:53:31;99933.13;;;1.25;86.64
16255;BME280;8235;52.198;9.904;2024-01-16T11:59:05;99932.78;;;1.34;87.58
16255;BME280;8235;52.198;9.904;2024-01-16T12:01:35;99939.50;;;1.42;87.91
16255;BME280;8235;52.198;9.904;2024-01-16T12:04:03;99926.41;;;1.42;87.05
16255;BME280;8235;52.198;9.904;2024-01-16T12:06:30;99931.59;;;1.43;86.67
16255;BME280;8235;52.198;9.904;2024-01-16T12:09:10;99936.88;;;1.42;86.79
16255;BME280;8235;52.198;9.904;2024-01-16T12:11:37;99935.88;;;1.44;86.69
16255;BME280;8235;52.198;9.904;2024-01-16T12:14:03;99932.31;;;1.47;87.14
16255;BME280;8235;52.198;9.904;2024-01-16T12:16:30;99929.56;;;1.50;87.43
16255;BME280;8235;52.198;9.904;2024-01-16T12:19:05;99922.59;;;1.49;87.49
16255;BME280;8235;52.198;9.904;2024-01-16T12:21:34;99932.19;;;1.50;87.30
16255;BME280;8235;52.198;9.904;2024-01-16T12:24:00;99927.91;;;1.47;87.11
16255;BME280;8235;52.198;9.904;2024-01-16T12:26:27;99931.38;;;1.48;88.05
16255;BME280;8235;52.198;9.904;2024-01-16T12:28:54;99931.16;;;1.54;88.22
16255;BME280;8235;52.198;9.904;2024-01-16T12:31:21;99919.75;;;1.55;88.17
16255;BME280;8235;52.198;9.904;2024-01-16T12:33:48;99924.22;;;1.53;88.35
16255;BME280;8235;52.198;9.904;2024-01-16T12:36:15;99935.56;;;1.53;88.02
16255;BME280;8235;52.198;9.904;2024-01-16T12:38:42;99927.69;;;1.53;88.30
16255;BME280;8235;52.198;9.904;2024-01-16T12:41:10;99935.50;;;1.55;88.05
16255;BME280;8235;52.198;9.904;2024-01-16T12:43:37;99924.22;;;1.53;89.33
16255;BME280;8235;52.198;9.904;2024-01-16T12:46:04;99917.31;;;1.50;88.98
16255;BME280;8235;52.198;9.904;2024-01-16T12:48:31;99920.78;;;1.51;88.70
16255;BME280;8235;52.198;9.904;2024-01-16T12:50:59;99915.59;;;1.49;88.95
16255;BME280;8235;52.198;9.904;2024-01-16T12:53:27;99915.66;;;1.48;89.73
16255;BME280;8235;52.198;9.904;2024-01-16T12:56:00;99912.22;;;1.46;89.06
16255;BME280;8235;52.198;9.904;2024-01-16T12:58:32;99919.28;;;1.44;88.64
16255;BME280;8235;52.198;9.904;2024-01-16T13:01:24;99915.00;;;1.43;88.90
16255;BME280;8235;52.198;9.904;2024-01-16T13:03:51;99916.81;;;1.41;88.87
16255;BME280;8235;52.198;9.904;2024-01-16T13:06:19;99908.94;;;1.41;88.68
16255;BME280;8235;52.198;9.904;2024-01-16T13:08:46;99901.19;;;1.37;89.18
16255;BME280;8235;52.198;9.904;2024-01-16T13:11:12;99897.63;;;1.38;89.72
16255;BME280;8235;52.198;9.904;2024-01-16T13:13:40;99897.53;;;1.42;89.89
16255;BME280;8235;52.198;9.904;2024-01-16T13:16:07;99890.56;;;1.41;89.28
16255;BME280;8235;52.198;9.904;2024-01-16T13:18:35;99882.69;;;1.41;89.06
16255;BME280;8235;52.198;9.904;2024-01-16T13:21:02;99894.75;;;1.45;89.37